Time;durP1;ratioP1;P1;durP2;ratioP2;P2;SDS_P1;SDS_P2;PMS_P1;PMS_P2;Temp;Humidity;BMP_temperature;BMP_pressure;BME280_temperature;BME280_humidity;BME280_pressure;Samples;Min_cycle;Max_cycle;Signal;HPM_P1;HPM_P2
2023/07/12 00:00:30;;;;;;;;;;;;;;;19.83;100.00;96187.28;5105073;28;19944;-74
2023/07/12 00:02:56;;;;;;;;;;;;;;;19.91;100.00;96204.50;5106137;28;19939;-76
2023/07/12 00:05:28;;;;;;;;;;;;;;;19.98;100.00;96212.91;5105598;28;19939;-75
2023/07/12 00:07:57;;;;;;;;;;;;;;;20.04;100.00;96217.09;5105619;28;19935;-80
2023/07/12 00:10:28;;;;;;;;;;;;;;;20.06;100.00;96204.31;5106033;28;19932;-78
2023/07/12 00:12:54;;;;;;;;;;;;;;;20.09;100.00;96200.28;5105978;28;19945;-80
2023/07/12 00:15:22;;;;;;;;;;;;;;;20.07;100.00;96205.91;5106434;28;19951;-79
2023/07/12 00:17:49;;;;;;;;;;;;;;;20.05;100.00;96240.00;5105763;28;19962;-79
2023/07/12 00:20:17;;;;;;;;;;;;;;;20.02;100.00;96237.88;5105593;28;20214;-79
2023/07/12 00:22:44;;;;;;;;;;;;;;;19.99;100.00;96238.47;5105445;28;19944;-82
2023/07/12 00:25:10;;;;;;;;;;;;;;;19.98;100.00;96234.22;5088509;28;19946;-74
2023/07/12 00:27:36;;;;;;;;;;;;;;;19.99;100.00;96238.47;5087617;28;19937;-75
2023/07/12 00:30:08;;;;;;;;;;;;;;;20.00;100.00;96232.06;5105637;28;19944;-75
2023/07/12 00:32:34;;;;;;;;;;;;;;;20.01;100.00;96224.84;5105137;28;19935;-76
2023/07/12 00:35:00;;;;;;;;;;;;;;;20.04;100.00;96218.97;5087404;28;19958;-74
2023/07/12 00:37:26;;;;;;;;;;;;;;;20.04;100.00;96211.78;5105788;28;19938;-75
2023/07/12 00:39:52;;;;;;;;;;;;;;;19.99;100.00;96205.72;5104440;28;19950;-75
2023/07/12 00:42:31;;;;;;;;;;;;;;;19.95;100.00;96191.38;5104632;28;19938;-73
2023/07/12 00:44:57;;;;;;;;;;;;;;;19.94;100.00;96193.25;5104294;28;19933;-75
2023/07/12 00:47:23;;;;;;;;;;;;;;;19.95;100.00;96200.19;5066716;28;19944;-74
2023/07/12 00:49:51;;;;;;;;;;;;;;;19.92;100.00;96191.97;5066753;28;20132;-76
2023/07/12 00:52:18;;;;;;;;;;;;;;;19.90;100.00;96196.78;5066621;28;19944;-75
2023/07/12 00:54:55;;;;;;;;;;;;;;;19.86;100.00;96197.38;5066772;28;19946;-74
2023/07/12 00:57:22;;;;;;;;;;;;;;;19.86;100.00;96193.88;5066734;28;20249;-75
2023/07/12 00:59:49;;;;;;;;;;;;;;;19.86;100.00;96184.06;5083148;28;19937;-80
2023/07/12 01:02:15;;;;;;;;;;;;;;;19.89;100.00;96177.38;5066354;28;19936;-76
2023/07/12 01:04:42;;;;;;;;;;;;;;;19.91;100.00;96145.94;5066264;28;19948;-75
2023/07/12 01:07:09;;;;;;;;;;;;;;;19.94;100.00;96107.31;5066223;28;19936;-78
2023/07/12 01:09:35;;;;;;;;;;;;;;;19.82;100.00;96009.25;5066152;28;19938;-80
2023/07/12 01:12:01;;;;;;;;;;;;;;;19.75;100.00;96012.28;5066494;28;20020;-79
2023/07/12 01:14:27;;;;;;;;;;;;;;;19.75;100.00;96062.06;5083324;28;19956;-78
2023/07/12 01:16:56;;;;;;;;;;;;;;;19.75;100.00;96137.34;5083156;28;20086;-75
2023/07/12 01:19:22;;;;;;;;;;;;;;;19.70;100.00;96128.59;5084883;28;19939;-76
2023/07/12 01:21:49;;;;;;;;;;;;;;;19.64;100.00;96118.00;5087535;28;19992;-76
2023/07/12 01:24:16;;;;;;;;;;;;;;;19.68;100.00;96103.06;5103690;28;19934;-77
2023/07/12 01:26:49;;;;;;;;;;;;;;;19.72;100.00;96094.53;5104981;28;19930;-76
2023/07/12 01:29:15;;;;;;;;;;;;;;;19.73;100.00;96122.75;5103484;28;19942;-76
2023/07/12 01:31:42;;;;;;;;;;;;;;;19.75;100.00;96107.28;5104353;28;20121;-76
2023/07/12 01:34:08;;;;;;;;;;;;;;;19.77;100.00;96134.41;5085867;28;19933;-76
2023/07/12 01:36:34;;;;;;;;;;;;;;;19.79;100.00;96124.25;5087119;28;19965;-76
2023/07/12 01:39:01;;;;;;;;;;;;;;;19.80;100.00;96117.84;5104520;28;19936;-76
2023/07/12 01:41:27;;;;;;;;;;;;;;;19.83;100.00;96099.47;5105024;28;19958;-75
2023/07/12 01:43:53;;;;;;;;;;;;;;;19.86;100.00;96090.09;5104188;28;20210;-76
2023/07/12 01:46:19;;;;;;;;;;;;;;;19.89;100.00;96080.78;5103282;28;19950;-76
2023/07/12 01:48:45;;;;;;;;;;;;;;;19.91;100.00;96066.09;5104405;28;19939;-76
2023/07/12 01:51:11;;;;;;;;;;;;;;;19.92;100.00;96059.69;5103301;28;19938;-76
2023/07/12 01:53:37;;;;;;;;;;;;;;;19.93;100.00;96055.16;5104914;28;19943;-77
2023/07/12 01:56:04;;;;;;;;;;;;;;;19.91;100.00;96062.63;5104947;28;19957;-83
2023/07/12 01:58:30;;;;;;;;;;;;;;;19.87;100.00;96055.22;5103773;28;19939;-83
2023/07/12 02:00:57;;;;;;;;;;;;;;;19.87;100.00;96046.47;5103198;28;20112;-83
2023/07/12 02:03:24;;;;;;;;;;;;;;;19.85;100.00;96054.72;5105040;28;19933;-83
2023/07/12 02:05:50;;;;;;;;;;;;;;;19.83;100.00;96048.91;5086290;28;20152;-83
2023/07/12 02:08:16;;;;;;;;;;;;;;;19.83;100.00;96034.81;5103869;28;19944;-84
2023/07/12 02:10:42;;;;;;;;;;;;;;;19.81;100.00;96035.09;5102967;28;19943;-83
2023/07/12 02:13:08;;;;;;;;;;;;;;;19.82;100.00;96042.00;5103658;28;20001;-77
2023/07/12 02:15:33;;;;;;;;;;;;;;;19.82;100.00;96042.00;5103340;28;20166;-81
2023/07/12 02:18:00;;;;;;;;;;;;;;;19.81;100.00;96047.59;5102811;28;19967;-82
2023/07/12 02:20:26;;;;;;;;;;;;;;;19.80;100.00;96054.81;5086436;28;20234;-82
2023/07/12 02:22:52;;;;;;;;;;;;;;;19.81;100.00;96066.22;5104850;28;19942;-83
2023/07/12 02:25:19;;;;;;;;;;;;;;;19.79;100.00;96068.38;5103697;28;19937;-82
2023/07/12 02:27:44;;;;;;;;;;;;;;;19.77;100.00;96062.56;5086014;28;19943;-82
2023/07/12 02:30:12;;;;;;;;;;;;;;;19.73;100.00;96059.66;5102812;28;19941;-75
2023/07/12 02:32:38;;;;;;;;;;;;;;;19.72;100.00;96067.94;5103680;28;19938;-75
2023/07/12 02:35:04;;;;;;;;;;;;;;;19.70;100.00;96068.25;5102828;28;20007;-74
2023/07/12 02:37:30;;;;;;;;;;;;;;;19.69;100.00;96074.59;5086595;28;19945;-75
2023/07/12 02:39:56;;;;;;;;;;;;;;;19.64;100.00;96062.16;5103359;28;20008;-75
2023/07/12 02:42:22;;;;;;;;;;;;;;;19.63;100.00;96057.91;5086717;28;19937;-75
2023/07/12 02:44:49;;;;;;;;;;;;;;;19.62;100.00;96055.53;5103855;28;20237;-75
2023/07/12 02:47:15;;;;;;;;;;;;;;;19.62;100.00;96052.88;5106526;28;19960;-75
2023/07/12 02:49:40;;;;;;;;;;;;;;;19.62;100.00;96051.00;5106546;28;19943;-75
2023/07/12 02:52:07;;;;;;;;;;;;;;;19.62;100.00;96044.91;5090323;28;19944;-75
2023/07/12 02:54:34;;;;;;;;;;;;;;;19.61;100.00;96048.63;5108022;28;19945;-75
2023/07/12 02:57:00;;;;;;;;;;;;;;;19.60;100.00;96063.78;5106222;28;19958;-75
2023/07/12 02:59:26;;;;;;;;;;;;;;;19.59;100.00;96062.22;5086046;28;20065;-75
2023/07/12 03:01:52;;;;;;;;;;;;;;;19.54;100.00;96070.25;5052166;28;20234;-76
2023/07/12 03:04:18;;;;;;;;;;;;;;;19.49;100.00;96070.31;5069272;28;19941;-75
2023/07/12 03:06:44;;;;;;;;;;;;;;;19.48;100.00;96069.50;5068711;28;19940;-83
2023/07/12 03:09:10;;;;;;;;;;;;;;;19.47;100.00;96070.59;5068690;28;19936;-73
2023/07/12 03:11:36;;;;;;;;;;;;;;;19.47;100.00;96077.78;5085500;28;19940;-75
2023/07/12 03:14:02;;;;;;;;;;;;;;;19.46;100.00;96078.84;5068987;28;19938;-75
2023/07/12 03:16:28;;;;;;;;;;;;;;;19.42;100.00;96081.31;5085125;28;19949;-75
2023/07/12 03:18:55;;;;;;;;;;;;;;;19.40;100.00;96069.34;5068249;28;20012;-75
2023/07/12 03:21:21;;;;;;;;;;;;;;;19.39;100.00;96065.91;5068320;28;20249;-75
2023/07/12 03:23:47;;;;;;;;;;;;;;;19.40;100.00;96067.50;5068308;28;19945;-75
2023/07/12 03:26:13;;;;;;;;;;;;;;;19.41;100.00;96065.63;5085757;28;20208;-75
2023/07/12 03:28:39;;;;;;;;;;;;;;;19.41;100.00;96071.72;5069064;28;19943;-82
2023/07/12 03:31:06;;;;;;;;;;;;;;;19.43;100.00;96074.91;5095833;28;19944;-81
2023/07/12 03:33:32;;;;;;;;;;;;;;;19.42;100.00;96083.16;5105758;28;20008;-82
2023/07/12 03:35:59;;;;;;;;;;;;;;;19.37;100.00;96096.50;5106936;28;19950;-82
2023/07/12 03:38:25;;;;;;;;;;;;;;;19.35;100.00;96107.41;5106341;28;19944;-82
2023/07/12 03:40:52;;;;;;;;;;;;;;;19.33;100.00;96116.75;5088713;28;19933;-82
2023/07/12 03:43:18;;;;;;;;;;;;;;;19.32;100.00;96112.50;5106303;28;19937;-74
2023/07/12 03:45:43;;;;;;;;;;;;;;;19.35;100.00;96122.59;5106568;28;19934;-82
2023/07/12 03:48:09;;;;;;;;;;;;;;;19.34;100.00;96105.03;5089337;28;19941;-73
2023/07/12 03:50:41;;;;;;;;;;;;;;;19.31;100.00;96095.75;5106520;28;19990;-72
2023/07/12 03:53:08;;;;;;;;;;;;;;;19.31;100.00;96089.66;5106380;28;19941;-72
2023/07/12 03:55:38;;;;;;;;;;;;;;;19.27;100.00;96102.72;5106261;28;19976;-73
2023/07/12 03:58:04;;;;;;;;;;;;;;;19.26;100.00;96101.16;5088276;28;20148;-73
2023/07/12 04:00:30;;;;;;;;;;;;;;;19.26;100.00;96109.91;5088228;28;19978;-73
2023/07/12 04:02:56;;;;;;;;;;;;;;;19.25;100.00;96120.81;5105134;28;19940;-75
2023/07/12 04:05:22;;;;;;;;;;;;;;;19.24;100.00;96138.63;5089095;28;20238;-75
2023/07/12 04:07:48;;;;;;;;;;;;;;;19.26;100.00;96144.47;5105098;28;19936;-75
2023/07/12 04:10:14;;;;;;;;;;;;;;;19.27;100.00;96143.38;5106632;28;19940;-75
2023/07/12 04:12:40;;;;;;;;;;;;;;;19.24;100.00;96156.47;5105034;28;19963;-75
2023/07/12 04:15:06;;;;;;;;;;;;;;;19.24;100.00;96159.13;5088006;28;19965;-75
2023/07/12 04:17:33;;;;;;;;;;;;;;;19.27;100.00;96164.66;5106151;28;20034;-75
2023/07/12 04:19:59;;;;;;;;;;;;;;;19.27;100.00;96167.31;5104767;28;19951;-74
2023/07/12 04:22:24;;;;;;;;;;;;;;;19.29;100.00;96160.94;5105530;28;19939;-81
2023/07/12 04:24:52;;;;;;;;;;;;;;;19.23;100.00;96166.31;5104837;28;19937;-74
2023/07/12 04:27:18;;;;;;;;;;;;;;;19.24;100.00;96164.44;5106056;28;19938;-74
2023/07/12 04:29:45;;;;;;;;;;;;;;;19.29;100.00;96159.06;5087760;28;19966;-74
2023/07/12 04:32:10;;;;;;;;;;;;;;;19.30;100.00;96167.81;5105693;28;19940;-74
2023/07/12 04:34:36;;;;;;;;;;;;;;;19.31;100.00;96159.56;5105282;28;19933;-74
2023/07/12 04:37:02;;;;;;;;;;;;;;;19.38;100.00;96164.56;5105500;28;19953;-74
2023/07/12 04:39:28;;;;;;;;;;;;;;;19.43;100.00;96156.53;5105232;28;19940;-76
2023/07/12 04:41:54;;;;;;;;;;;;;;;19.46;100.00;96148.00;5104274;28;19942;-75
2023/07/12 04:44:20;;;;;;;;;;;;;;;19.50;100.00;96159.66;5104439;28;19952;-75
2023/07/12 04:46:46;;;;;;;;;;;;;;;19.52;100.00;96157.50;5088248;28;19947;-75
2023/07/12 04:49:12;;;;;;;;;;;;;;;19.53;100.00;96152.97;5105348;28;19948;-75
2023/07/12 04:51:37;;;;;;;;;;;;;;;19.56;100.00;96150.56;5088073;28;19948;-75
2023/07/12 04:54:03;;;;;;;;;;;;;;;19.58;100.00;96160.91;5104969;28;19944;-75
2023/07/12 04:56:29;;;;;;;;;;;;;;;19.61;100.00;96157.69;5087865;28;19989;-75
2023/07/12 04:58:55;;;;;;;;;;;;;;;19.62;100.00;96161.94;5106053;28;19934;-74
2023/07/12 05:01:21;;;;;;;;;;;;;;;19.64;100.00;96165.09;5104678;28;19937;-75
2023/07/12 05:03:48;;;;;;;;;;;;;;;19.66;100.00;96160.28;5104596;28;19950;-75
2023/07/12 05:06:14;;;;;;;;;;;;;;;19.67;100.00;96170.66;5087853;28;19936;-75
2023/07/12 05:08:40;;;;;;;;;;;;;;;19.67;100.00;96178.66;5104631;28;19942;-75
2023/07/12 05:11:06;;;;;;;;;;;;;;;19.69;100.00;96178.34;5105024;28;19950;-74
2023/07/12 05:13:33;;;;;;;;;;;;;;;19.70;100.00;96177.31;5104457;28;19946;-74
2023/07/12 05:15:59;;;;;;;;;;;;;;;19.72;100.00;96171.69;5103750;28;19957;-75
2023/07/12 05:18:25;;;;;;;;;;;;;;;19.73;100.00;96173.28;5103752;28;19964;-74
2023/07/12 05:20:52;;;;;;;;;;;;;;;19.71;100.00;96183.41;5087660;28;20165;-74
2023/07/12 05:23:18;;;;;;;;;;;;;;;19.71;100.00;96189.53;5104717;28;19937;-75
2023/07/12 05:25:51;;;;;;;;;;;;;;;19.74;100.00;96190.81;5104458;28;19945;-74
2023/07/12 05:28:17;;;;;;;;;;;;;;;19.77;100.00;96190.28;5086602;28;20135;-75
2023/07/12 05:30:43;;;;;;;;;;;;;;;19.81;100.00;96191.28;5103574;28;19943;-74
2023/07/12 05:33:09;;;;;;;;;;;;;;;19.84;100.00;96196.03;5105433;28;19946;-75
2023/07/12 05:35:35;;;;;;;;;;;;;;;19.84;100.00;96196.03;5103343;28;19963;-78
2023/07/12 05:38:02;;;;;;;;;;;;;;;19.82;100.00;96192.88;5103465;28;20017;-72
2023/07/12 05:40:29;;;;;;;;;;;;;;;19.83;100.00;96195.25;5105112;28;20218;-72
2023/07/12 05:42:56;;;;;;;;;;;;;;;19.86;100.00;96197.38;5104478;28;19944;-73
2023/07/12 05:45:23;;;;;;;;;;;;;;;19.88;100.00;96199.72;5104995;28;19936;-72
2023/07/12 05:47:49;;;;;;;;;;;;;;;19.90;100.00;96191.47;5103415;28;19939;-72
2023/07/12 05:50:16;;;;;;;;;;;;;;;19.91;100.00;96185.03;5105172;28;19939;-72
2023/07/12 05:52:42;;;;;;;;;;;;;;;19.91;100.00;96185.88;5104055;28;19944;-74
2023/07/12 05:55:10;;;;;;;;;;;;;;;19.99;100.00;96189.75;5103143;28;19946;-76
2023/07/12 05:57:35;;;;;;;;;;;;;;;20.03;100.00;96185.44;5104015;28;20124;-73
2023/07/12 06:00:02;;;;;;;;;;;;;;;20.04;100.00;96185.16;5104080;28;19936;-74
2023/07/12 06:02:28;;;;;;;;;;;;;;;20.07;100.00;96184.63;5103140;28;19942;-73
2023/07/12 06:04:54;;;;;;;;;;;;;;;20.09;100.00;96194.94;5087016;28;19981;-73
2023/07/12 06:07:20;;;;;;;;;;;;;;;20.12;100.00;96191.72;5087108;28;19940;-73
2023/07/12 06:09:45;;;;;;;;;;;;;;;20.17;100.00;96201.53;5086318;28;19944;-73
2023/07/12 06:12:11;;;;;;;;;;;;;;;20.24;100.00;96196.63;5103673;28;19933;-74
2023/07/12 06:14:37;;;;;;;;;;;;;;;20.31;100.00;96191.75;5103691;28;19936;-72
2023/07/12 06:17:06;;;;;;;;;;;;;;;20.40;100.00;96198.03;5103371;28;20010;-73
2023/07/12 06:19:32;;;;;;;;;;;;;;;20.43;100.00;96186.81;5104176;28;19960;-72
2023/07/12 06:21:58;;;;;;;;;;;;;;;20.56;100.00;96198.63;5107628;28;20193;-73
2023/07/12 06:24:24;;;;;;;;;;;;;;;20.71;100.00;96196.84;5107506;28;20016;-73
2023/07/12 06:26:50;;;;;;;;;;;;;;;20.92;100.00;96195.47;5106944;28;20014;-73
2023/07/12 06:29:15;;;;;;;;;;;;;;;21.22;100.00;96198.72;5108122;28;20211;-74
2023/07/12 06:31:42;;;;;;;;;;;;;;;21.47;100.00;96190.31;5106978;28;19968;-78
2023/07/12 06:34:09;;;;;;;;;;;;;;;21.76;100.00;96191.16;5107280;28;19936;-80
2023/07/12 06:36:34;;;;;;;;;;;;;;;21.96;100.00;96189.97;5090682;28;19958;-80
2023/07/12 06:39:00;;;;;;;;;;;;;;;22.07;100.00;96196.69;5106850;28;19948;-80
2023/07/12 06:41:27;;;;;;;;;;;;;;;22.19;100.00;96196.19;5107640;28;20020;-79
2023/07/12 06:43:52;;;;;;;;;;;;;;;22.37;100.00;96199.84;5106729;28;19934;-80
2023/07/12 06:46:18;;;;;;;;;;;;;;;22.64;100.00;96215.03;5090478;28;20274;-79
2023/07/12 06:48:45;;;;;;;;;;;;;;;22.87;100.00;96208.63;5107323;28;20126;-76
2023/07/12 06:51:11;;;;;;;;;;;;;;;22.95;100.00;96212.47;5090470;28;19944;-85
2023/07/12 06:53:37;;;;;;;;;;;;;;;23.01;100.00;96213.94;5089628;28;19952;-86
2023/07/12 06:56:03;;;;;;;;;;;;;;;23.05;100.00;96216.81;5108098;28;19956;-85
2023/07/12 06:58:29;;;;;;;;;;;;;;;23.01;100.00;96213.94;5108133;28;19995;-86
2023/07/12 07:00:54;;;;;;;;;;;;;;;22.90;100.00;96218.72;5106391;28;19990;-86
2023/07/12 07:03:20;;;;;;;;;;;;;;;22.75;100.00;96213.72;5108318;28;19943;-87
2023/07/12 07:05:47;;;;;;;;;;;;;;;22.70;100.00;96229.88;5107398;28;19952;-75
2023/07/12 07:08:17;;;;;;;;;;;;;;;22.75;100.00;96235.09;5106778;28;19937;-73
2023/07/12 07:10:43;;;;;;;;;;;;;;;22.81;100.00;96219.75;5106261;28;19949;-74
2023/07/12 07:13:09;;;;;;;;;;;;;;;22.75;100.00;96220.94;5090008;28;19940;-75
2023/07/12 07:15:36;;;;;;;;;;;;;;;22.74;100.00;96236.22;5107661;28;19942;-75
2023/07/12 07:18:02;;;;;;;;;;;;;;;22.81;100.00;96241.13;5106114;28;19972;-75
2023/07/12 07:20:28;;;;;;;;;;;;;;;22.80;100.00;96237.66;5107584;28;19938;-75
2023/07/12 07:22:54;;;;;;;;;;;;;;;22.80;100.00;96229.63;5089063;28;19943;-75
2023/07/12 07:25:20;;;;;;;;;;;;;;;22.80;100.00;96231.53;5106488;28;19933;-72
2023/07/12 07:27:46;;;;;;;;;;;;;;;22.82;100.00;96229.34;5107040;28;19929;-76
2023/07/12 07:30:13;;;;;;;;;;;;;;;22.84;100.00;96235.97;5089657;28;19946;-76
2023/07/12 07:32:39;;;;;;;;;;;;;;;22.94;100.00;96228.81;5105520;28;19999;-76
2023/07/12 07:35:05;;;;;;;;;;;;;;;22.90;100.00;96231.28;5105788;28;19937;-77
2023/07/12 07:37:31;;;;;;;;;;;;;;;22.79;100.00;96232.63;5088633;28;19955;-76
2023/07/12 07:39:57;;;;;;;;;;;;;;;22.89;100.00;96245.78;5089519;28;19948;-77
2023/07/12 07:42:23;;;;;;;;;;;;;;;23.09;100.00;96236.50;5106163;28;19937;-73
2023/07/12 07:44:49;;;;;;;;;;;;;;;23.31;100.00;96235.72;5105544;28;19940;-75
2023/07/12 07:47:15;;;;;;;;;;;;;;;23.54;100.00;96236.50;5107149;28;19946;-87
2023/07/12 07:49:41;;;;;;;;;;;;;;;23.69;100.00;96232.66;5088516;28;19947;-88
2023/07/12 07:52:07;;;;;;;;;;;;;;;23.70;100.00;96235.00;5088517;28;19937;-87
2023/07/12 07:54:33;;;;;;;;;;;;;;;23.72;100.00;96240.06;5105661;28;19933;-87
2023/07/12 07:56:59;;;;;;;;;;;;;;;23.79;100.00;96245.81;5105201;28;20010;-88
2023/07/12 07:59:25;;;;;;;;;;;;;;;23.94;94.97;96227.72;5105222;28;20253;-88
2023/07/12 08:01:51;;;;;;;;;;;;;;;23.94;90.49;96219.69;5089207;28;19938;-75
2023/07/12 08:04:19;;;;;;;;;;;;;;;24.11;91.12;96231.28;5106012;28;19934;-76
2023/07/12 08:06:45;;;;;;;;;;;;;;;24.36;91.38;96233.53;5106227;28;19940;-76
2023/07/12 08:09:11;;;;;;;;;;;;;;;24.37;85.86;96211.78;5104941;28;19951;-75
2023/07/12 08:11:37;;;;;;;;;;;;;;;24.22;84.73;96220.28;5106390;28;19984;-76
2023/07/12 08:14:03;;;;;;;;;;;;;;;24.04;77.80;96182.72;5106015;28;19968;-75
2023/07/12 08:16:33;;;;;;;;;;;;;;;24.10;81.19;96208.25;5105595;28;19966;-76
2023/07/12 08:18:59;;;;;;;;;;;;;;;23.96;79.06;96204.09;5105813;28;20017;-76
2023/07/12 08:21:25;;;;;;;;;;;;;;;23.75;82.77;96236.78;5106719;28;20227;-74
2023/07/12 08:24:09;;;;;;;;;;;;;;;23.79;85.61;96245.81;5091168;28;19944;-75
2023/07/12 08:26:36;;;;;;;;;;;;;;;23.90;82.73;96225.69;5087789;28;19977;-75
2023/07/12 08:29:02;;;;;;;;;;;;;;;23.85;77.55;96203.59;5106364;28;19936;-76
2023/07/12 08:31:28;;;;;;;;;;;;;;;23.89;79.39;96217.94;5087696;28;19935;-75
2023/07/12 08:33:55;;;;;;;;;;;;;;;24.04;83.14;96248.88;5104542;28;19946;-76
2023/07/12 08:36:21;;;;;;;;;;;;;;;24.19;79.62;96218.19;5106360;28;19957;-75
2023/07/12 08:38:47;;;;;;;;;;;;;;;24.50;74.69;96189.44;5104516;28;19943;-82
2023/07/12 08:41:15;;;;;;;;;;;;;;;24.66;72.33;96172.91;5105535;28;19999;-76
2023/07/12 08:43:41;;;;;;;;;;;;;;;24.63;72.14;96189.63;5104726;28;20119;-76
2023/07/12 08:46:22;;;;;;;;;;;;;;;24.69;74.51;96212.50;5104322;28;19940;-76
2023/07/12 08:48:53;;;;;;;;;;;;;;;24.54;71.49;96183.47;5087869;28;19936;-75
2023/07/12 08:51:24;;;;;;;;;;;;;;;24.44;73.16;96204.09;5105929;28;19941;-76
2023/07/12 08:53:50;;;;;;;;;;;;;;;24.41;74.45;96218.09;5106134;28;19943;-76
2023/07/12 08:56:18;;;;;;;;;;;;;;;24.33;75.24;96218.88;5104291;28;19955;-73
2023/07/12 08:58:46;;;;;;;;;;;;;;;24.27;72.68;96214.75;5105226;28;19934;-86
2023/07/12 09:01:19;;;;;;;;;;;;;;;24.19;69.93;96196.75;5104664;28;19942;-77
2023/07/12 09:03:45;;;;;;;;;;;;;;;24.24;71.66;96208.13;5104598;28;19939;-75
2023/07/12 09:06:15;;;;;;;;;;;;;;;24.47;69.98;96192.72;5104689;28;19936;-76
2023/07/12 09:08:47;;;;;;;;;;;;;;;24.82;67.50;96157.94;5105529;28;20037;-76
2023/07/12 09:11:15;;;;;;;;;;;;;;;24.97;60.91;96120.97;5104533;28;19928;-76
2023/07/12 09:13:41;;;;;;;;;;;;;;;25.17;62.48;96144.44;5087397;28;20217;-76
2023/07/12 09:16:22;;;;;;;;;;;;;;;25.39;61.74;96140.81;5104795;28;20015;-89
2023/07/12 09:18:50;;;;;;;;;;;;;;;25.51;60.17;96134.75;5103562;28;20292;-79
2023/07/12 09:21:22;;;;;;;;;;;;;;;25.46;59.17;96149.13;5086340;28;21077;-79
2023/07/12 09:23:48;;;;;;;;;;;;;;;25.59;60.99;96174.19;5087602;28;19962;-79
2023/07/12 09:26:20;;;;;;;;;;;;;;;25.69;59.21;96187.28;5104354;28;20219;-80
2023/07/12 09:28:46;;;;;;;;;;;;;;;25.79;59.08;96193.44;5087557;28;20215;-79
2023/07/12 09:31:14;;;;;;;;;;;;;;;25.95;62.58;96224.03;5105142;28;19939;-79
2023/07/12 09:33:40;;;;;;;;;;;;;;;26.06;62.53;96227.13;5103677;28;19934;-75
2023/07/12 09:36:06;;;;;;;;;;;;;;;26.06;58.28;96211.81;5087337;28;19949;-73
2023/07/12 09:38:35;;;;;;;;;;;;;;;26.02;58.34;96216.25;5086584;28;19939;-73
2023/07/12 09:41:07;;;;;;;;;;;;;;;25.89;57.94;96215.38;5103318;28;20241;-73
2023/07/12 09:43:36;;;;;;;;;;;;;;;25.80;58.70;96211.09;5104062;28;19939;-73
2023/07/12 09:46:03;;;;;;;;;;;;;;;25.91;60.75;96223.09;5105274;28;19934;-73
2023/07/12 09:48:35;;;;;;;;;;;;;;;25.97;61.12;96226.41;5104136;28;19946;-73
2023/07/12 09:51:10;;;;;;;;;;;;;;;25.91;60.49;96218.53;5103560;28;20144;-73
2023/07/12 09:53:39;;;;;;;;;;;;;;;25.85;59.43;96208.22;5087241;28;19941;-76
2023/07/12 09:56:11;;;;;;;;;;;;;;;25.79;60.08;96213.00;5102749;28;19960;-76
2023/07/12 09:58:42;;;;;;;;;;;;;;;25.71;59.93;96214.59;5103257;28;20127;-76
2023/07/12 10:01:21;;;;;;;;;;;;;;;25.62;60.70;96194.25;5103717;28;19938;-76
2023/07/12 10:03:52;;;;;;;;;;;;;;;25.52;60.92;96222.25;5105097;28;19933;-76
2023/07/12 10:06:51;;;;;;;;;;;;;;;25.68;62.99;96222.50;5104529;28;19936;-76
2023/07/12 10:09:21;;;;;;;;;;;;;;;25.96;59.14;96198.75;5070506;28;19940;-75
2023/07/12 10:11:49;;;;;;;;;;;;;;;26.08;59.55;96198.03;5086227;28;20143;-76
2023/07/12 10:14:18;;;;;;;;;;;;;;;26.24;58.91;96199.06;5086248;28;20136;-78
2023/07/12 10:16:49;;;;;;;;;;;;;;;26.41;57.53;96200.06;5103439;28;19980;-77
2023/07/12 10:19:36;;;;;;;;;;;;;;;26.52;58.65;96196.69;5103805;28;19940;-77
2023/07/12 10:22:03;;;;;;;;;;;;;;;26.77;57.87;96191.47;5103734;28;20121;-78
2023/07/12 10:24:34;;;;;;;;;;;;;;;26.86;54.50;96178.75;5086725;28;19941;-78
2023/07/12 10:27:02;;;;;;;;;;;;;;;26.76;57.94;96200.66;5103684;28;19937;-78
2023/07/12 10:29:35;;;;;;;;;;;;;;;26.82;57.25;96188.59;5104409;28;19942;-78
2023/07/12 10:32:02;;;;;;;;;;;;;;;26.96;56.62;96188.28;5086792;28;19944;-78
2023/07/12 10:34:32;;;;;;;;;;;;;;;27.09;55.31;96189.16;5103071;28;20106;-77
2023/07/12 10:37:03;;;;;;;;;;;;;;;27.23;57.20;96192.34;5102688;28;19962;-78
2023/07/12 10:39:29;;;;;;;;;;;;;;;27.36;52.72;96176.22;5086769;28;20084;-79
2023/07/12 10:42:03;;;;;;;;;;;;;;;27.44;53.74;96176.13;5102764;28;19983;-78
2023/07/12 10:44:32;;;;;;;;;;;;;;;27.45;55.64;96204.66;5103632;28;19946;-78
2023/07/12 10:47:01;;;;;;;;;;;;;;;27.27;55.30;96189.78;5086629;28;19945;-74
2023/07/12 10:49:44;;;;;;;;;;;;;;;27.38;54.96;96190.16;5102656;28;19937;-89
2023/07/12 10:52:10;;;;;;;;;;;;;;;27.50;55.07;96190.97;5102607;28;19966;-77
2023/07/12 10:54:36;;;;;;;;;;;;;;;27.66;54.28;96176.88;5085813;28;20291;-78
2023/07/12 10:57:05;;;;;;;;;;;;;;;27.86;53.47;96165.22;5102425;28;20008;-78
2023/07/12 10:59:30;;;;;;;;;;;;;;;28.00;52.62;96164.13;5085749;28;19954;-78
2023/07/12 11:02:15;;;;;;;;;;;;;;;28.02;53.92;96168.03;5085763;28;19944;-78
2023/07/12 11:04:50;;;;;;;;;;;;;;;28.22;54.95;96168.22;5104525;28;19936;-78
2023/07/12 11:07:15;;;;;;;;;;;;;;;28.37;54.09;96166.75;5105579;28;19938;-88
2023/07/12 11:09:47;;;;;;;;;;;;;;;28.48;53.36;96144.38;5106206;28;19938;-75
2023/07/12 11:12:16;;;;;;;;;;;;;;;28.36;55.30;96165.19;5089165;28;19940;-76
2023/07/12 11:14:50;;;;;;;;;;;;;;;28.16;51.88;96150.72;5089982;28;19944;-75
2023/07/12 11:17:26;;;;;;;;;;;;;;;28.27;53.79;96149.16;5107137;28;20130;-75
2023/07/12 11:20:04;;;;;;;;;;;;;;;28.46;53.63;96146.63;5089780;28;19970;-76
2023/07/12 11:22:51;;;;;;;;;;;;;;;28.56;51.62;96141.91;5105984;28;19929;-76
2023/07/12 11:25:27;;;;;;;;;;;;;;;28.76;54.71;96153.66;5107023;28;19945;-76
2023/07/12 11:27:53;;;;;;;;;;;;;;;29.07;53.46;96151.03;5088954;28;20145;-74
2023/07/12 11:30:23;;;;;;;;;;;;;;;29.29;52.63;96147.03;5088878;28;19938;-74
2023/07/12 11:32:53;;;;;;;;;;;;;;;29.50;52.93;96146.78;5106857;28;19942;-75
2023/07/12 11:35:33;;;;;;;;;;;;;;;29.47;53.20;96146.69;5105679;28;19936;-75
2023/07/12 11:38:03;;;;;;;;;;;;;;;29.15;50.06;96143.97;5106998;28;20243;-74
2023/07/12 11:40:32;;;;;;;;;;;;;;;28.73;49.89;96145.13;5106434;28;19934;-74
2023/07/12 11:43:17;;;;;;;;;;;;;;;28.44;51.39;96148.88;5106703;28;20137;-78
2023/07/12 11:45:44;;;;;;;;;;;;;;;28.30;52.59;96161.94;5088976;28;19996;-74
2023/07/12 11:48:12;;;;;;;;;;;;;;;28.42;52.92;96151.13;5106555;28;20138;-74
2023/07/12 11:50:38;;;;;;;;;;;;;;;28.76;54.37;96157.13;5105995;28;19939;-74
2023/07/12 11:53:04;;;;;;;;;;;;;;;29.20;55.94;96153.72;5106032;28;20126;-75
2023/07/12 11:55:32;;;;;;;;;;;;;;;29.54;48.58;96141.44;5106104;28;19937;-75
2023/07/12 11:57:58;;;;;;;;;;;;;;;29.70;47.24;96130.69;5105927;28;19960;-74
2023/07/12 12:00:25;;;;;;;;;;;;;;;29.73;48.94;96138.88;5106300;28;19932;-87
2023/07/12 12:02:53;;;;;;;;;;;;;;;29.86;49.53;96144.16;5089041;28;19938;-80
2023/07/12 12:05:26;;;;;;;;;;;;;;;29.85;47.08;96145.31;5106243;28;19948;-75
2023/07/12 12:07:54;;;;;;;;;;;;;;;29.88;48.57;96144.59;5105835;28;19940;-76
2023/07/12 12:10:21;;;;;;;;;;;;;;;29.94;47.92;96135.09;5105777;28;19966;-76
2023/07/12 12:12:48;;;;;;;;;;;;;;;29.97;48.03;96122.81;5105651;28;19942;-76
2023/07/12 12:15:19;;;;;;;;;;;;;;;29.91;49.45;96131.19;5106729;28;19933;-76
2023/07/12 12:17:45;;;;;;;;;;;;;;;29.73;47.72;96127.28;5104492;28;19967;-75
2023/07/12 12:20:11;;;;;;;;;;;;;;;29.69;49.24;96126.38;5104099;28;19941;-75
2023/07/12 12:22:39;;;;;;;;;;;;;;;29.61;49.42;96119.22;5105844;28;20220;-75
2023/07/12 12:25:05;;;;;;;;;;;;;;;29.73;49.62;96116.47;5105708;28;19934;-75
2023/07/12 12:27:34;;;;;;;;;;;;;;;29.59;48.02;96116.91;5104606;28;19937;-73
2023/07/12 12:30:33;;;;;;;;;;;;;;;29.33;47.79;96133.59;5104484;28;19951;-74
2023/07/12 12:33:04;;;;;;;;;;;;;;;29.06;48.33;96136.00;5061068;28;19964;-75
2023/07/12 12:35:31;;;;;;;;;;;;;;;28.90;47.71;96125.13;5106290;28;19983;-74
2023/07/12 12:37:58;;;;;;;;;;;;;;;29.09;48.55;96135.28;5088156;28;19960;-77
2023/07/12 12:40:24;;;;;;;;;;;;;;;29.32;49.53;96130.13;5088173;28;19951;-74
2023/07/12 12:43:03;;;;;;;;;;;;;;;29.51;48.87;96129.44;5087301;28;20004;-75